sensor_id;sensor_type;location;lat;lon;timestamp;P1;durP1;ratioP1;P2;durP2;ratioP2
18048;SDS011;9149;47.002;8.604;2022-09-09T00:02:26;5.28;;;1.02;;
18048;SDS011;9149;47.002;8.604;2022-09-09T00:04:59;1.58;;;1.25;;
18048;SDS011;9149;47.002;8.604;2022-09-09T00:07:33;1.48;;;1.05;;
18048;SDS011;9149;47.002;8.604;2022-09-09T00:10:15;3.45;;;1.38;;
18048;SDS011;9149;47.002;8.604;2022-09-09T00:12:48;6.60;;;1.30;;
18048;SDS011;9149;47.002;8.604;2022-09-09T00:15:22;5.40;;;1.20;;
18048;SDS011;9149;47.002;8.604;2022-09-09T00:20:39;8.88;;;1.40;;
18048;SDS011;9149;47.002;8.604;2022-09-09T00:23:12;1.00;;;0.90;;
18048;SDS011;9149;47.002;8.604;2022-09-09T00:25:45;2.63;;;1.27;;
18048;SDS011;9149;47.002;8.604;2022-09-09T00:28:18;1.55;;;1.15;;
18048;SDS011;9149;47.002;8.604;2022-09-09T00:31:08;5.00;;;1.15;;
18048;SDS011;9149;47.002;8.604;2022-09-09T00:33:38;7.20;;;1.27;;
18048;SDS011;9149;47.002;8.604;2022-09-09T00:36:09;8.32;;;1.30;;
18048;SDS011;9149;47.002;8.604;2022-09-09T00:38:41;3.42;;;1.20;;
18048;SDS011;9149;47.002;8.604;2022-09-09T00:41:11;5.88;;;1.20;;
18048;SDS011;9149;47.002;8.604;2022-09-09T00:43:40;1.63;;;1.10;;
18048;SDS011;9149;47.002;8.604;2022-09-09T00:46:13;1.88;;;1.05;;
18048;SDS011;9149;47.002;8.604;2022-09-09T00:48:47;1.10;;;1.00;;
18048;SDS011;9149;47.002;8.604;2022-09-09T00:51:22;1.63;;;1.10;;
18048;SDS011;9149;47.002;8.604;2022-09-09T00:53:57;1.88;;;1.00;;
18048;SDS011;9149;47.002;8.604;2022-09-09T00:56:26;2.80;;;1.20;;
18048;SDS011;9149;47.002;8.604;2022-09-09T00:58:59;1.30;;;1.17;;
18048;SDS011;9149;47.002;8.604;2022-09-09T01:01:27;1.38;;;1.10;;
18048;SDS011;9149;47.002;8.604;2022-09-09T01:03:55;1.20;;;0.98;;
18048;SDS011;9149;47.002;8.604;2022-09-09T01:06:28;1.27;;;1.02;;
18048;SDS011;9149;47.002;8.604;2022-09-09T01:09:03;4.75;;;1.23;;
18048;SDS011;9149;47.002;8.604;2022-09-09T01:11:33;1.02;;;0.93;;
18048;SDS011;9149;47.002;8.604;2022-09-09T01:14:10;1.58;;;1.25;;
18048;SDS011;9149;47.002;8.604;2022-09-09T01:16:39;1.98;;;1.10;;
18048;SDS011;9149;47.002;8.604;2022-09-09T01:19:09;1.52;;;0.90;;
18048;SDS011;9149;47.002;8.604;2022-09-09T01:21:41;2.80;;;1.10;;
18048;SDS011;9149;47.002;8.604;2022-09-09T01:24:17;2.25;;;1.08;;
18048;SDS011;9149;47.002;8.604;2022-09-09T01:26:58;1.20;;;1.10;;
18048;SDS011;9149;47.002;8.604;2022-09-09T01:29:26;2.85;;;1.20;;
18048;SDS011;9149;47.002;8.604;2022-09-09T01:31:55;2.17;;;1.35;;
18048;SDS011;9149;47.002;8.604;2022-09-09T01:34:25;7.88;;;1.20;;
18048;SDS011;9149;47.002;8.604;2022-09-09T01:36:55;8.55;;;1.05;;
18048;SDS011;9149;47.002;8.604;2022-09-09T01:39:25;2.28;;;1.30;;
18048;SDS011;9149;47.002;8.604;2022-09-09T01:42:01;1.20;;;1.10;;
18048;SDS011;9149;47.002;8.604;2022-09-09T01:44:29;2.72;;;1.10;;
18048;SDS011;9149;47.002;8.604;2022-09-09T01:46:57;2.88;;;1.08;;
18048;SDS011;9149;47.002;8.604;2022-09-09T01:49:25;2.28;;;1.02;;
18048;SDS011;9149;47.002;8.604;2022-09-09T01:51:53;5.90;;;1.13;;
18048;SDS011;9149;47.002;8.604;2022-09-09T01:54:28;1.25;;;1.00;;
18048;SDS011;9149;47.002;8.604;2022-09-09T01:57:02;1.25;;;0.93;;
18048;SDS011;9149;47.002;8.604;2022-09-09T01:59:41;1.10;;;0.82;;
18048;SDS011;9149;47.002;8.604;2022-09-09T02:02:13;1.27;;;0.93;;
18048;SDS011;9149;47.002;8.604;2022-09-09T02:04:52;1.10;;;1.00;;
18048;SDS011;9149;47.002;8.604;2022-09-09T02:07:28;2.92;;;1.23;;
18048;SDS011;9149;47.002;8.604;2022-09-09T02:10:00;1.90;;;1.20;;
18048;SDS011;9149;47.002;8.604;2022-09-09T02:12:31;1.00;;;0.90;;
18048;SDS011;9149;47.002;8.604;2022-09-09T02:15:02;1.67;;;0.82;;
18048;SDS011;9149;47.002;8.604;2022-09-09T02:17:41;3.80;;;1.42;;
18048;SDS011;9149;47.002;8.604;2022-09-09T02:20:13;2.38;;;1.20;;
18048;SDS011;9149;47.002;8.604;2022-09-09T02:22:47;1.83;;;1.08;;
18048;SDS011;9149;47.002;8.604;2022-09-09T02:25:19;1.88;;;0.90;;
18048;SDS011;9149;47.002;8.604;2022-09-09T02:27:50;1.52;;;1.17;;
18048;SDS011;9149;47.002;8.604;2022-09-09T02:30:19;4.20;;;1.00;;
18048;SDS011;9149;47.002;8.604;2022-09-09T02:32:52;2.15;;;1.10;;
18048;SDS011;9149;47.002;8.604;2022-09-09T02:35:33;1.85;;;1.10;;
18048;SDS011;9149;47.002;8.604;2022-09-09T02:38:05;1.10;;;1.00;;
18048;SDS011;9149;47.002;8.604;2022-09-09T02:40:34;1.98;;;1.13;;
18048;SDS011;9149;47.002;8.604;2022-09-09T02:43:04;2.10;;;1.27;;
18048;SDS011;9149;47.002;8.604;2022-09-09T02:45:35;2.70;;;1.10;;
18048;SDS011;9149;47.002;8.604;2022-09-09T02:48:06;2.00;;;1.20;;
18048;SDS011;9149;47.002;8.604;2022-09-09T02:50:38;4.35;;;1.30;;
18048;SDS011;9149;47.002;8.604;2022-09-09T02:53:10;4.65;;;1.20;;
18048;SDS011;9149;47.002;8.604;2022-09-09T02:55:44;1.88;;;1.23;;
18048;SDS011;9149;47.002;8.604;2022-09-09T02:58:18;4.28;;;1.20;;
18048;SDS011;9149;47.002;8.604;2022-09-09T03:00:54;3.10;;;1.20;;
18048;SDS011;9149;47.002;8.604;2022-09-09T03:03:25;2.78;;;1.30;;
18048;SDS011;9149;47.002;8.604;2022-09-09T03:05:54;1.40;;;1.00;;
18048;SDS011;9149;47.002;8.604;2022-09-09T03:08:24;2.17;;;1.10;;
18048;SDS011;9149;47.002;8.604;2022-09-09T03:10:55;1.42;;;0.90;;
18048;SDS011;9149;47.002;8.604;2022-09-09T03:13:26;5.13;;;1.05;;
18048;SDS011;9149;47.002;8.604;2022-09-09T03:15:53;2.10;;;1.33;;
18048;SDS011;9149;47.002;8.604;2022-09-09T03:18:21;2.05;;;1.33;;
18048;SDS011;9149;47.002;8.604;2022-09-09T03:20:51;1.95;;;1.30;;
18048;SDS011;9149;47.002;8.604;2022-09-09T03:23:20;2.42;;;1.20;;
18048;SDS011;9149;47.002;8.604;2022-09-09T03:25:50;1.65;;;1.05;;
18048;SDS011;9149;47.002;8.604;2022-09-09T03:28:26;3.75;;;1.40;;
18048;SDS011;9149;47.002;8.604;2022-09-09T03:30:59;4.95;;;1.40;;
18048;SDS011;9149;47.002;8.604;2022-09-09T03:33:29;4.45;;;1.38;;
18048;SDS011;9149;47.002;8.604;2022-09-09T03:35:57;1.90;;;1.30;;
18048;SDS011;9149;47.002;8.604;2022-09-09T03:38:25;4.38;;;1.38;;
18048;SDS011;9149;47.002;8.604;2022-09-09T03:40:53;7.45;;;1.10;;
18048;SDS011;9149;47.002;8.604;2022-09-09T03:43:23;1.80;;;1.30;;
18048;SDS011;9149;47.002;8.604;2022-09-09T03:45:53;3.17;;;1.58;;
18048;SDS011;9149;47.002;8.604;2022-09-09T03:48:25;1.35;;;1.02;;
18048;SDS011;9149;47.002;8.604;2022-09-09T03:50:54;1.05;;;0.75;;
18048;SDS011;9149;47.002;8.604;2022-09-09T03:53:24;1.63;;;1.10;;
18048;SDS011;9149;47.002;8.604;2022-09-09T03:55:54;4.38;;;1.10;;
18048;SDS011;9149;47.002;8.604;2022-09-09T03:58:24;5.78;;;1.05;;
18048;SDS011;9149;47.002;8.604;2022-09-09T04:00:58;1.52;;;1.00;;
18048;SDS011;9149;47.002;8.604;2022-09-09T04:03:26;2.33;;;1.30;;
18048;SDS011;9149;47.002;8.604;2022-09-09T04:05:55;4.78;;;1.13;;
18048;SDS011;9149;47.002;8.604;2022-09-09T04:08:26;4.18;;;1.27;;
18048;SDS011;9149;47.002;8.604;2022-09-09T04:10:54;1.30;;;1.10;;
18048;SDS011;9149;47.002;8.604;2022-09-09T04:13:26;1.63;;;1.20;;
18048;SDS011;9149;47.002;8.604;2022-09-09T04:15:56;4.38;;;1.20;;
18048;SDS011;9149;47.002;8.604;2022-09-09T04:18:25;2.03;;;1.10;;
18048;SDS011;9149;47.002;8.604;2022-09-09T04:20:54;5.35;;;1.40;;
18048;SDS011;9149;47.002;8.604;2022-09-09T04:23:25;1.58;;;1.10;;
18048;SDS011;9149;47.002;8.604;2022-09-09T04:25:57;3.88;;;1.20;;
18048;SDS011;9149;47.002;8.604;2022-09-09T04:28:26;1.20;;;1.10;;
18048;SDS011;9149;47.002;8.604;2022-09-09T04:30:55;1.80;;;1.25;;
18048;SDS011;9149;47.002;8.604;2022-09-09T04:33:23;3.42;;;1.35;;
18048;SDS011;9149;47.002;8.604;2022-09-09T04:35:54;4.38;;;1.33;;
18048;SDS011;9149;47.002;8.604;2022-09-09T04:38:24;5.38;;;1.40;;
18048;SDS011;9149;47.002;8.604;2022-09-09T04:40:54;2.17;;;1.35;;
18048;SDS011;9149;47.002;8.604;2022-09-09T04:43:22;1.63;;;1.30;;
18048;SDS011;9149;47.002;8.604;2022-09-09T04:45:53;2.67;;;1.35;;
18048;SDS011;9149;47.002;8.604;2022-09-09T04:48:23;1.60;;;1.13;;
18048;SDS011;9149;47.002;8.604;2022-09-09T04:50:57;1.90;;;1.25;;
18048;SDS011;9149;47.002;8.604;2022-09-09T04:53:25;2.30;;;1.40;;
18048;SDS011;9149;47.002;8.604;2022-09-09T04:56:00;3.55;;;1.10;;
18048;SDS011;9149;47.002;8.604;2022-09-09T04:58:30;1.98;;;1.13;;
18048;SDS011;9149;47.002;8.604;2022-09-09T05:01:05;2.38;;;1.05;;
18048;SDS011;9149;47.002;8.604;2022-09-09T05:03:34;2.88;;;1.33;;
18048;SDS011;9149;47.002;8.604;2022-09-09T05:06:06;2.90;;;1.50;;
18048;SDS011;9149;47.002;8.604;2022-09-09T05:08:36;3.72;;;1.30;;
18048;SDS011;9149;47.002;8.604;2022-09-09T05:11:04;4.20;;;1.33;;
18048;SDS011;9149;47.002;8.604;2022-09-09T05:13:31;4.45;;;1.00;;
18048;SDS011;9149;47.002;8.604;2022-09-09T05:16:05;4.10;;;1.10;;
18048;SDS011;9149;47.002;8.604;2022-09-09T05:18:33;4.20;;;1.52;;
18048;SDS011;9149;47.002;8.604;2022-09-09T05:21:01;2.28;;;1.08;;
18048;SDS011;9149;47.002;8.604;2022-09-09T05:23:31;1.90;;;1.27;;
18048;SDS011;9149;47.002;8.604;2022-09-09T05:26:00;1.77;;;1.13;;
18048;SDS011;9149;47.002;8.604;2022-09-09T05:28:29;1.55;;;1.10;;
18048;SDS011;9149;47.002;8.604;2022-09-09T05:30:57;7.53;;;1.23;;
18048;SDS011;9149;47.002;8.604;2022-09-09T05:33:29;5.10;;;1.27;;
18048;SDS011;9149;47.002;8.604;2022-09-09T05:35:57;1.40;;;1.00;;
18048;SDS011;9149;47.002;8.604;2022-09-09T05:38:25;1.88;;;0.95;;
18048;SDS011;9149;47.002;8.604;2022-09-09T05:40:56;2.20;;;1.20;;
18048;SDS011;9149;47.002;8.604;2022-09-09T05:43:24;2.33;;;1.10;;
18048;SDS011;9149;47.002;8.604;2022-09-09T05:45:58;3.17;;;1.13;;
18048;SDS011;9149;47.002;8.604;2022-09-09T05:48:27;2.67;;;1.10;;
18048;SDS011;9149;47.002;8.604;2022-09-09T05:51:07;3.22;;;1.10;;
18048;SDS011;9149;47.002;8.604;2022-09-09T05:53:36;4.47;;;1.17;;
18048;SDS011;9149;47.002;8.604;2022-09-09T05:56:06;1.35;;;1.20;;
18048;SDS011;9149;47.002;8.604;2022-09-09T05:58:36;4.45;;;1.23;;
18048;SDS011;9149;47.002;8.604;2022-09-09T06:01:07;4.32;;;1.30;;
18048;SDS011;9149;47.002;8.604;2022-09-09T06:03:36;2.28;;;1.20;;
18048;SDS011;9149;47.002;8.604;2022-09-09T06:06:05;7.00;;;1.13;;
18048;SDS011;9149;47.002;8.604;2022-09-09T06:08:33;1.67;;;1.00;;
18048;SDS011;9149;47.002;8.604;2022-09-09T06:11:06;4.97;;;1.27;;
18048;SDS011;9149;47.002;8.604;2022-09-09T06:13:35;2.50;;;1.20;;
18048;SDS011;9149;47.002;8.604;2022-09-09T06:16:04;1.63;;;1.00;;
18048;SDS011;9149;47.002;8.604;2022-09-09T06:18:33;2.38;;;1.00;;
18048;SDS011;9149;47.002;8.604;2022-09-09T06:21:02;4.00;;;1.27;;
18048;SDS011;9149;47.002;8.604;2022-09-09T06:23:31;1.77;;;1.30;;
18048;SDS011;9149;47.002;8.604;2022-09-09T06:26:00;5.88;;;1.60;;
18048;SDS011;9149;47.002;8.604;2022-09-09T06:28:29;1.67;;;1.50;;
18048;SDS011;9149;47.002;8.604;2022-09-09T06:30:58;7.63;;;1.52;;
18048;SDS011;9149;47.002;8.604;2022-09-09T06:33:27;2.50;;;1.30;;
18048;SDS011;9149;47.002;8.604;2022-09-09T06:35:57;3.38;;;1.30;;
18048;SDS011;9149;47.002;8.604;2022-09-09T06:38:26;6.10;;;1.73;;
18048;SDS011;9149;47.002;8.604;2022-09-09T06:40:54;3.80;;;1.60;;
18048;SDS011;9149;47.002;8.604;2022-09-09T06:43:22;2.85;;;1.50;;
18048;SDS011;9149;47.002;8.604;2022-09-09T06:45:55;2.25;;;1.48;;
18048;SDS011;9149;47.002;8.604;2022-09-09T06:48:24;5.90;;;1.40;;
18048;SDS011;9149;47.002;8.604;2022-09-09T06:50:59;1.75;;;1.13;;
18048;SDS011;9149;47.002;8.604;2022-09-09T06:53:28;2.58;;;1.40;;
18048;SDS011;9149;47.002;8.604;2022-09-09T06:55:56;6.18;;;1.58;;
18048;SDS011;9149;47.002;8.604;2022-09-09T06:58:24;2.28;;;1.20;;
18048;SDS011;9149;47.002;8.604;2022-09-09T07:01:02;7.85;;;1.40;;
18048;SDS011;9149;47.002;8.604;2022-09-09T07:03:31;9.70;;;1.30;;
18048;SDS011;9149;47.002;8.604;2022-09-09T07:06:00;1.83;;;1.20;;
18048;SDS011;9149;47.002;8.604;2022-09-09T07:08:28;1.70;;;1.08;;
18048;SDS011;9149;47.002;8.604;2022-09-09T07:11:01;3.90;;;1.10;;
18048;SDS011;9149;47.002;8.604;2022-09-09T07:13:29;2.30;;;1.13;;
18048;SDS011;9149;47.002;8.604;2022-09-09T07:16:04;6.13;;;1.27;;
18048;SDS011;9149;47.002;8.604;2022-09-09T07:18:32;2.90;;;1.08;;
18048;SDS011;9149;47.002;8.604;2022-09-09T07:21:00;5.05;;;1.20;;
18048;SDS011;9149;47.002;8.604;2022-09-09T07:23:29;1.30;;;0.77;;
18048;SDS011;9149;47.002;8.604;2022-09-09T07:26:02;2.83;;;0.90;;
18048;SDS011;9149;47.002;8.604;2022-09-09T07:28:30;1.80;;;0.93;;
18048;SDS011;9149;47.002;8.604;2022-09-09T07:30:58;2.90;;;1.05;;
18048;SDS011;9149;47.002;8.604;2022-09-09T07:33:31;1.63;;;0.90;;
18048;SDS011;9149;47.002;8.604;2022-09-09T07:36:03;2.20;;;0.90;;
18048;SDS011;9149;47.002;8.604;2022-09-09T07:38:32;4.93;;;1.10;;
18048;SDS011;9149;47.002;8.604;2022-09-09T07:41:04;3.45;;;1.08;;
18048;SDS011;9149;47.002;8.604;2022-09-09T07:43:32;0.90;;;0.80;;
18048;SDS011;9149;47.002;8.604;2022-09-09T07:46:00;1.33;;;1.00;;
18048;SDS011;9149;47.002;8.604;2022-09-09T07:48:30;1.77;;;1.00;;
18048;SDS011;9149;47.002;8.604;2022-09-09T07:51:07;3.13;;;0.82;;
18048;SDS011;9149;47.002;8.604;2022-09-09T07:53:36;1.77;;;0.90;;
18048;SDS011;9149;47.002;8.604;2022-09-09T07:56:05;5.25;;;0.90;;
18048;SDS011;9149;47.002;8.604;2022-09-09T07:58:34;1.98;;;0.90;;
18048;SDS011;9149;47.002;8.604;2022-09-09T08:01:06;1.63;;;0.90;;
18048;SDS011;9149;47.002;8.604;2022-09-09T08:03:35;2.10;;;0.88;;
18048;SDS011;9149;47.002;8.604;2022-09-09T08:06:04;2.42;;;0.77;;
18048;SDS011;9149;47.002;8.604;2022-09-09T08:08:32;3.13;;;0.93;;
18048;SDS011;9149;47.002;8.604;2022-09-09T08:11:01;3.80;;;1.10;;
18048;SDS011;9149;47.002;8.604;2022-09-09T08:13:30;2.80;;;0.75;;
18048;SDS011;9149;47.002;8.604;2022-09-09T08:16:06;4.32;;;0.77;;
18048;SDS011;9149;47.002;8.604;2022-09-09T08:18:37;2.95;;;0.70;;
18048;SDS011;9149;47.002;8.604;2022-09-09T08:21:06;3.22;;;0.80;;
18048;SDS011;9149;47.002;8.604;2022-09-09T08:23:34;1.60;;;0.80;;
18048;SDS011;9149;47.002;8.604;2022-09-09T08:26:03;3.67;;;0.80;;
18048;SDS011;9149;47.002;8.604;2022-09-09T08:28:31;7.20;;;0.85;;
18048;SDS011;9149;47.002;8.604;2022-09-09T08:31:04;2.60;;;0.90;;
18048;SDS011;9149;47.002;8.604;2022-09-09T08:33:33;2.75;;;0.93;;
18048;SDS011;9149;47.002;8.604;2022-09-09T08:36:04;4.88;;;1.05;;
18048;SDS011;9149;47.002;8.604;2022-09-09T08:38:33;1.25;;;0.80;;
18048;SDS011;9149;47.002;8.604;2022-09-09T08:41:06;1.20;;;1.00;;
18048;SDS011;9149;47.002;8.604;2022-09-09T08:43:35;3.55;;;1.25;;
18048;SDS011;9149;47.002;8.604;2022-09-09T08:46:05;5.18;;;1.33;;
18048;SDS011;9149;47.002;8.604;2022-09-09T08:48:41;1.48;;;0.90;;
18048;SDS011;9149;47.002;8.604;2022-09-09T08:51:11;2.30;;;0.88;;
18048;SDS011;9149;47.002;8.604;2022-09-09T08:53:42;2.08;;;0.90;;
18048;SDS011;9149;47.002;8.604;2022-09-09T08:56:11;3.63;;;0.90;;
18048;SDS011;9149;47.002;8.604;2022-09-09T08:58:45;6.93;;;0.80;;
18048;SDS011;9149;47.002;8.604;2022-09-09T09:01:19;0.60;;;0.50;;
18048;SDS011;9149;47.002;8.604;2022-09-09T09:03:55;1.58;;;0.80;;
18048;SDS011;9149;47.002;8.604;2022-09-09T09:06:34;1.30;;;0.80;;
18048;SDS011;9149;47.002;8.604;2022-09-09T09:09:08;3.55;;;1.00;;
18048;SDS011;9149;47.002;8.604;2022-09-09T09:11:40;1.35;;;0.70;;
18048;SDS011;9149;47.002;8.604;2022-09-09T09:14:09;1.10;;;0.70;;
18048;SDS011;9149;47.002;8.604;2022-09-09T09:16:40;4.13;;;0.50;;
18048;SDS011;9149;47.002;8.604;2022-09-09T09:19:10;4.43;;;0.70;;
18048;SDS011;9149;47.002;8.604;2022-09-09T09:21:43;1.55;;;0.57;;
18048;SDS011;9149;47.002;8.604;2022-09-09T09:24:15;0.65;;;0.45;;
18048;SDS011;9149;47.002;8.604;2022-09-09T09:26:48;0.50;;;0.47;;
18048;SDS011;9149;47.002;8.604;2022-09-09T09:29:17;0.73;;;0.52;;
18048;SDS011;9149;47.002;8.604;2022-09-09T09:31:47;2.67;;;0.80;;
18048;SDS011;9149;47.002;8.604;2022-09-09T09:34:15;1.50;;;0.93;;
18048;SDS011;9149;47.002;8.604;2022-09-09T09:36:53;2.55;;;0.80;;
18048;SDS011;9149;47.002;8.604;2022-09-09T09:39:22;2.47;;;1.02;;
18048;SDS011;9149;47.002;8.604;2022-09-09T09:42:10;2.90;;;1.20;;
18048;SDS011;9149;47.002;8.604;2022-09-09T09:44:42;3.65;;;1.02;;
18048;SDS011;9149;47.002;8.604;2022-09-09T09:47:15;1.38;;;0.70;;
18048;SDS011;9149;47.002;8.604;2022-09-09T09:49:51;1.52;;;0.68;;
18048;SDS011;9149;47.002;8.604;2022-09-09T09:52:21;4.78;;;0.80;;
18048;SDS011;9149;47.002;8.604;2022-09-09T09:54:50;1.05;;;0.60;;
18048;SDS011;9149;47.002;8.604;2022-09-09T09:57:22;1.35;;;0.70;;
18048;SDS011;9149;47.002;8.604;2022-09-09T09:59:59;3.83;;;0.88;;
18048;SDS011;9149;47.002;8.604;2022-09-09T10:02:31;4.55;;;0.70;;
18048;SDS011;9149;47.002;8.604;2022-09-09T10:05:12;5.38;;;0.70;;
18048;SDS011;9149;47.002;8.604;2022-09-09T10:07:43;1.42;;;0.90;;
18048;SDS011;9149;47.002;8.604;2022-09-09T10:10:13;2.45;;;0.73;;
18048;SDS011;9149;47.002;8.604;2022-09-09T10:12:45;4.03;;;1.05;;
18048;SDS011;9149;47.002;8.604;2022-09-09T10:15:20;3.10;;;0.82;;
18048;SDS011;9149;47.002;8.604;2022-09-09T10:17:54;1.45;;;0.70;;
18048;SDS011;9149;47.002;8.604;2022-09-09T10:20:28;2.60;;;0.82;;
18048;SDS011;9149;47.002;8.604;2022-09-09T10:23:04;1.38;;;0.70;;
18048;SDS011;9149;47.002;8.604;2022-09-09T10:25:38;1.70;;;0.80;;
18048;SDS011;9149;47.002;8.604;2022-09-09T10:28:14;3.17;;;0.70;;
18048;SDS011;9149;47.002;8.604;2022-09-09T10:30:47;1.27;;;0.70;;
18048;SDS011;9149;47.002;8.604;2022-09-09T10:33:18;2.13;;;0.82;;
18048;SDS011;9149;47.002;8.604;2022-09-09T10:35:50;0.90;;;0.52;;
18048;SDS011;9149;47.002;8.604;2022-09-09T10:38:23;0.57;;;0.50;;
18048;SDS011;9149;47.002;8.604;2022-09-09T10:41:13;0.70;;;0.60;;
18048;SDS011;9149;47.002;8.604;2022-09-09T10:43:46;0.50;;;0.50;;
18048;SDS011;9149;47.002;8.604;2022-09-09T10:46:27;1.85;;;0.50;;
18048;SDS011;9149;47.002;8.604;2022-09-09T10:49:00;2.10;;;0.60;;
18048;SDS011;9149;47.002;8.604;2022-09-09T10:51:33;0.45;;;0.40;;
18048;SDS011;9149;47.002;8.604;2022-09-09T10:54:09;2.78;;;0.80;;
18048;SDS011;9149;47.002;8.604;2022-09-09T10:56:40;1.25;;;0.70;;
18048;SDS011;9149;47.002;8.604;2022-09-09T10:59:09;2.05;;;0.65;;
18048;SDS011;9149;47.002;8.604;2022-09-09T11:01:40;1.15;;;0.50;;
18048;SDS011;9149;47.002;8.604;2022-09-09T11:04:12;0.68;;;0.40;;
18048;SDS011;9149;47.002;8.604;2022-09-09T11:07:02;1.90;;;0.60;;
18048;SDS011;9149;47.002;8.604;2022-09-09T11:09:39;7.25;;;0.60;;
18048;SDS011;9149;47.002;8.604;2022-09-09T11:12:09;1.75;;;0.63;;
18048;SDS011;9149;47.002;8.604;2022-09-09T11:14:41;0.52;;;0.50;;
18048;SDS011;9149;47.002;8.604;2022-09-09T11:17:10;1.42;;;0.60;;
18048;SDS011;9149;47.002;8.604;2022-09-09T11:19:40;1.73;;;0.80;;
18048;SDS011;9149;47.002;8.604;2022-09-09T11:22:12;0.57;;;0.50;;
18048;SDS011;9149;47.002;8.604;2022-09-09T11:24:44;0.90;;;0.60;;
18048;SDS011;9149;47.002;8.604;2022-09-09T11:27:15;5.78;;;0.50;;
18048;SDS011;9149;47.002;8.604;2022-09-09T11:32:26;3.40;;;0.75;;
18048;SDS011;9149;47.002;8.604;2022-09-09T11:34:59;3.72;;;0.60;;
18048;SDS011;9149;47.002;8.604;2022-09-09T11:37:39;0.57;;;0.55;;
18048;SDS011;9149;47.002;8.604;2022-09-09T11:40:17;0.80;;;0.52;;
18048;SDS011;9149;47.002;8.604;2022-09-09T11:42:46;2.55;;;0.60;;
18048;SDS011;9149;47.002;8.604;2022-09-09T11:45:20;1.40;;;0.52;;
18048;SDS011;9149;47.002;8.604;2022-09-09T11:47:51;0.68;;;0.50;;
18048;SDS011;9149;47.002;8.604;2022-09-09T11:50:28;1.35;;;0.73;;
18048;SDS011;9149;47.002;8.604;2022-09-09T11:53:05;1.23;;;0.60;;
18048;SDS011;9149;47.002;8.604;2022-09-09T11:55:43;0.95;;;0.60;;
18048;SDS011;9149;47.002;8.604;2022-09-09T11:58:15;1.05;;;0.60;;
18048;SDS011;9149;47.002;8.604;2022-09-09T12:00:43;1.15;;;0.60;;
18048;SDS011;9149;47.002;8.604;2022-09-09T12:05:54;2.15;;;0.70;;
18048;SDS011;9149;47.002;8.604;2022-09-09T12:08:27;2.15;;;0.65;;
18048;SDS011;9149;47.002;8.604;2022-09-09T12:10:58;1.58;;;0.70;;
18048;SDS011;9149;47.002;8.604;2022-09-09T12:13:26;1.70;;;0.60;;
18048;SDS011;9149;47.002;8.604;2022-09-09T12:15:55;2.40;;;0.80;;
18048;SDS011;9149;47.002;8.604;2022-09-09T12:18:24;1.67;;;0.70;;
18048;SDS011;9149;47.002;8.604;2022-09-09T12:20:54;1.75;;;0.80;;
18048;SDS011;9149;47.002;8.604;2022-09-09T12:23:27;12.75;;;0.75;;
18048;SDS011;9149;47.002;8.604;2022-09-09T12:26:01;0.68;;;0.60;;
18048;SDS011;9149;47.002;8.604;2022-09-09T12:28:39;0.70;;;0.60;;
18048;SDS011;9149;47.002;8.604;2022-09-09T12:31:09;1.00;;;0.70;;
18048;SDS011;9149;47.002;8.604;2022-09-09T12:33:44;1.30;;;0.60;;
18048;SDS011;9149;47.002;8.604;2022-09-09T12:36:14;0.90;;;0.70;;
18048;SDS011;9149;47.002;8.604;2022-09-09T12:38:43;1.02;;;0.65;;
18048;SDS011;9149;47.002;8.604;2022-09-09T12:41:21;2.15;;;0.80;;
18048;SDS011;9149;47.002;8.604;2022-09-09T12:43:49;0.93;;;0.70;;
18048;SDS011;9149;47.002;8.604;2022-09-09T12:46:20;1.63;;;0.70;;
18048;SDS011;9149;47.002;8.604;2022-09-09T12:48:50;1.60;;;0.80;;
18048;SDS011;9149;47.002;8.604;2022-09-09T12:51:18;1.17;;;0.80;;
18048;SDS011;9149;47.002;8.604;2022-09-09T12:53:47;4.05;;;0.77;;
18048;SDS011;9149;47.002;8.604;2022-09-09T12:56:18;1.63;;;0.68;;
18048;SDS011;9149;47.002;8.604;2022-09-09T12:58:49;3.17;;;0.73;;
18048;SDS011;9149;47.002;8.604;2022-09-09T13:01:21;2.17;;;0.80;;
18048;SDS011;9149;47.002;8.604;2022-09-09T13:03:49;0.98;;;0.52;;
18048;SDS011;9149;47.002;8.604;2022-09-09T13:06:19;2.47;;;0.90;;
18048;SDS011;9149;47.002;8.604;2022-09-09T13:08:54;0.52;;;0.40;;
18048;SDS011;9149;47.002;8.604;2022-09-09T13:11:25;1.13;;;0.70;;
18048;SDS011;9149;47.002;8.604;2022-09-09T13:13:56;3.08;;;0.70;;
18048;SDS011;9149;47.002;8.604;2022-09-09T13:16:25;2.45;;;0.57;;
18048;SDS011;9149;47.002;8.604;2022-09-09T13:18:57;2.08;;;0.50;;
18048;SDS011;9149;47.002;8.604;2022-09-09T13:21:33;1.85;;;0.50;;
18048;SDS011;9149;47.002;8.604;2022-09-09T13:24:01;2.25;;;0.70;;
18048;SDS011;9149;47.002;8.604;2022-09-09T13:26:30;1.45;;;0.63;;
18048;SDS011;9149;47.002;8.604;2022-09-09T13:29:14;1.48;;;0.80;;
18048;SDS011;9149;47.002;8.604;2022-09-09T13:31:44;6.38;;;0.73;;
18048;SDS011;9149;47.002;8.604;2022-09-09T13:34:12;3.03;;;0.60;;
18048;SDS011;9149;47.002;8.604;2022-09-09T13:36:41;2.03;;;0.68;;
18048;SDS011;9149;47.002;8.604;2022-09-09T13:39:13;1.25;;;0.60;;
18048;SDS011;9149;47.002;8.604;2022-09-09T13:41:43;0.75;;;0.60;;
18048;SDS011;9149;47.002;8.604;2022-09-09T13:44:17;1.80;;;0.70;;
18048;SDS011;9149;47.002;8.604;2022-09-09T13:46:47;2.63;;;0.90;;
18048;SDS011;9149;47.002;8.604;2022-09-09T13:49:19;1.98;;;0.60;;
18048;SDS011;9149;47.002;8.604;2022-09-09T13:51:48;1.80;;;0.70;;
18048;SDS011;9149;47.002;8.604;2022-09-09T13:54:18;0.60;;;0.60;;
18048;SDS011;9149;47.002;8.604;2022-09-09T13:56:46;1.15;;;0.70;;
18048;SDS011;9149;47.002;8.604;2022-09-09T13:59:18;1.95;;;0.85;;
18048;SDS011;9149;47.002;8.604;2022-09-09T14:01:46;2.20;;;0.70;;
18048;SDS011;9149;47.002;8.604;2022-09-09T14:04:13;2.72;;;0.70;;
18048;SDS011;9149;47.002;8.604;2022-09-09T14:06:42;1.92;;;0.70;;
18048;SDS011;9149;47.002;8.604;2022-09-09T14:09:11;0.93;;;0.70;;
18048;SDS011;9149;47.002;8.604;2022-09-09T14:11:39;3.88;;;1.00;;
18048;SDS011;9149;47.002;8.604;2022-09-09T14:14:07;2.55;;;0.70;;
18048;SDS011;9149;47.002;8.604;2022-09-09T14:16:36;1.20;;;0.77;;
18048;SDS011;9149;47.002;8.604;2022-09-09T14:19:04;6.28;;;0.80;;
18048;SDS011;9149;47.002;8.604;2022-09-09T14:21:51;2.28;;;0.70;;
18048;SDS011;9149;47.002;8.604;2022-09-09T14:24:18;1.45;;;0.90;;
18048;SDS011;9149;47.002;8.604;2022-09-09T14:26:46;4.30;;;1.05;;
18048;SDS011;9149;47.002;8.604;2022-09-09T14:29:14;2.38;;;0.73;;
18048;SDS011;9149;47.002;8.604;2022-09-09T14:31:43;2.33;;;0.80;;
18048;SDS011;9149;47.002;8.604;2022-09-09T14:34:10;2.08;;;0.80;;
18048;SDS011;9149;47.002;8.604;2022-09-09T14:36:38;1.73;;;0.70;;
18048;SDS011;9149;47.002;8.604;2022-09-09T14:39:07;1.95;;;1.00;;
18048;SDS011;9149;47.002;8.604;2022-09-09T14:41:35;2.55;;;0.90;;
18048;SDS011;9149;47.002;8.604;2022-09-09T14:44:03;2.97;;;1.10;;
18048;SDS011;9149;47.002;8.604;2022-09-09T14:46:30;1.90;;;0.80;;
18048;SDS011;9149;47.002;8.604;2022-09-09T14:49:01;2.92;;;1.02;;
18048;SDS011;9149;47.002;8.604;2022-09-09T14:51:28;3.05;;;0.90;;
18048;SDS011;9149;47.002;8.604;2022-09-09T14:53:57;1.70;;;0.80;;
18048;SDS011;9149;47.002;8.604;2022-09-09T14:56:25;3.20;;;0.73;;
18048;SDS011;9149;47.002;8.604;2022-09-09T14:58:53;0.82;;;0.70;;
18048;SDS011;9149;47.002;8.604;2022-09-09T15:01:22;3.53;;;0.80;;
18048;SDS011;9149;47.002;8.604;2022-09-09T15:03:50;3.03;;;0.90;;
18048;SDS011;9149;47.002;8.604;2022-09-09T15:06:20;3.45;;;1.20;;
18048;SDS011;9149;47.002;8.604;2022-09-09T15:08:49;1.83;;;0.93;;
18048;SDS011;9149;47.002;8.604;2022-09-09T15:11:17;0.70;;;0.70;;
18048;SDS011;9149;47.002;8.604;2022-09-09T15:13:45;1.40;;;0.80;;
18048;SDS011;9149;47.002;8.604;2022-09-09T15:16:14;3.67;;;1.23;;
18048;SDS011;9149;47.002;8.604;2022-09-09T15:18:43;3.53;;;0.90;;
18048;SDS011;9149;47.002;8.604;2022-09-09T15:21:12;1.48;;;0.80;;
18048;SDS011;9149;47.002;8.604;2022-09-09T15:23:42;1.00;;;0.90;;
18048;SDS011;9149;47.002;8.604;2022-09-09T15:26:10;1.15;;;0.70;;
18048;SDS011;9149;47.002;8.604;2022-09-09T15:28:38;1.65;;;0.75;;
18048;SDS011;9149;47.002;8.604;2022-09-09T15:31:07;0.85;;;0.75;;
18048;SDS011;9149;47.002;8.604;2022-09-09T15:33:35;3.33;;;0.80;;